27 maggio 2022

Tempo Codice Tempo metereologico Temp. Vista Base nuvolosa Vento METAR/SPECI
1:20 pm
L
59 °F 0 mi - 270° 270° 12 - 22 kt METAR ETWM 271120Z AUTO 27012G22KT //// // ////// 15/05 Q1018 ///
12:20 pm
L
59 °F 0 mi - 270° 270° 10 - 26 kt METAR ETWM 271020Z AUTO 27010G26KT //// // ////// 15/04 Q1018 ///
11:20 am
L
59 °F 0 mi - 280° 280° 12 - 23 kt METAR ETWM 270920Z AUTO 28012G23KT //// // ////// 15/05 Q1018 ///
10:20 am
L
59 °F 0 mi - 290° 290° 8 - 18 kt METAR ETWM 270820Z AUTO 29008G18KT //// // ////// 15/06 Q1018 ///
9:20 am
L
57 °F 0 mi - 290° 290° 7 - 17 kt METAR ETWM 270720Z AUTO 29007G17KT //// // ////// 14/08 Q1017 ///
8:20 am
L
55 °F 0 mi - 280° 280° 5 kt METAR ETWM 270620Z AUTO 28005KT //// // ////// 13/11 Q1017 ///
7:20 am
L
54 °F 0 mi - 250° 250° 4 kt METAR ETWM 270520Z AUTO 25004KT //// // ////// 12/11 Q1017 ///
6:20 am
L
54 °F 0 mi - Var Var 3 kt METAR ETWM 270420Z AUTO VRB03KT //// // ////// 12/11 Q1017 ///
5:20 am
L
54 °F 0 mi - 260° 260° 3 kt METAR ETWM 270320Z AUTO 26003KT //// // ////// 12/11 Q1017 ///
4:20 am
L
55 °F 0 mi - 270° 270° 5 kt METAR ETWM 270220Z AUTO 27005KT //// // ////// 13/12 Q1016 ///
3:20 am
L
55 °F 0 mi - 250° 250° 5 kt METAR ETWM 270120Z AUTO 25005KT //// // ////// 13/12 Q1016 ///
2:20 am
L
55 °F 0 mi - 250° 250° 9 kt METAR ETWM 270020Z AUTO 25009KT //// // ////// 13/12 Q1016 ///
1:20 am
L
57 °F 0 mi - 240° 240° 8 - 18 kt METAR ETWM 262320Z AUTO 24008G18KT //// // ////// 14/13 Q1016 ///
12:20 am
L
57 °F 0 mi - 240° 240° 6 kt METAR ETWM 262220Z AUTO 24006KT //// // ////// 14/13 Q1017 ///

26 maggio 2022

Tempo Codice Tempo metereologico Temp. Vista Base nuvolosa Vento METAR/SPECI
11:20 pm
L
57 °F 0 mi - 230° 230° 7 kt METAR ETWM 262120Z AUTO 23007KT //// // ////// 14/13 Q1017 ///
10:20 pm
L
57 °F 0 mi - 240° 240° 8 - 18 kt METAR ETWM 262020Z AUTO 24008G18KT //// // ////// 14/13 Q1017 ///
9:20 pm
L
61 °F 0 mi - 260° 260° 9 kt METAR ETWM 261920Z AUTO 26009KT //// // ////// 16/10 Q1017 ///
8:20 pm
L
61 °F 0 mi - 260° 260° 9 - 21 kt METAR ETWM 261820Z AUTO 26009G21KT //// // ////// 16/10 Q1017 ///
7:20 pm
L
63 °F 0 mi - 280° 280° 6 kt METAR ETWM 261720Z AUTO 28006KT //// // ////// 17/10 Q1018 ///
6:20 pm
L
64 °F 0 mi - 250° 250° 8 kt METAR ETWM 261620Z AUTO 25008KT //// // ////// 18/09 Q1017 ///
5:20 pm
L
66 °F 0 mi - 260° 260° 7 kt METAR ETWM 261520Z AUTO 26007KT //// // ////// 19/09 Q1018 ///
4:20 pm
L
66 °F 0 mi - 260° 260° 9 - 22 kt METAR ETWM 261420Z AUTO 26009G22KT //// // ////// 19/08 Q1018 ///
3:20 pm
L
64 °F 0 mi - 260° 260° 8 - 18 kt METAR ETWM 261320Z AUTO 26008G18KT //// // ////// 18/09 Q1018 ///
2:20 pm
L
64 °F 0 mi - 250° 250° 8 kt METAR ETWM 261220Z AUTO 25008KT //// // ////// 18/09 Q1018 ///
1:20 pm
L
64 °F 0 mi - 250° 250° 9 kt METAR ETWM 261120Z AUTO 25009KT //// // ////// 18/08 Q1019 ///
12:20 pm
L
66 °F 0 mi - 260° 260° 7 - 19 kt METAR ETWM 261020Z AUTO 26007G19KT //// // ////// 19/08 Q1019 ///
11:20 am
L
63 °F 0 mi - 270° 270° 10 kt METAR ETWM 260920Z AUTO 27010KT //// // ////// 17/08 Q1019 ///
10:20 am
L
61 °F 0 mi - 270° 270° 9 - 20 kt METAR ETWM 260820Z AUTO 27009G20KT //// // ////// 16/08 Q1018 ///
9:20 am
L
61 °F 0 mi - 260° 260° 8 - 18 kt METAR ETWM 260720Z AUTO 26008G18KT //// // ////// 16/09 Q1017 ///
8:20 am
L
59 °F 0 mi - 280° 280° 7 kt METAR ETWM 260620Z AUTO 28007KT //// // ////// 15/10 Q1017 ///
7:20 am
L
57 °F 0 mi - 250° 250° 6 kt METAR ETWM 260520Z AUTO 25006KT //// // ////// 14/12 Q1016 ///
6:20 am
L
57 °F 0 mi - 230° 230° 5 kt METAR ETWM 260420Z AUTO 23005KT //// // ////// 14/12 Q1016 ///
5:20 am
L
57 °F 0 mi - 240° 240° 7 kt METAR ETWM 260320Z AUTO 24007KT //// // ////// 14/12 Q1015 ///
4:20 am
L
57 °F 0 mi - 240° 240° 7 kt METAR ETWM 260220Z AUTO 24007KT //// // ////// 14/12 Q1015 ///
3:20 am
L
55 °F 0 mi - 240° 240° 7 kt METAR ETWM 260120Z AUTO 24007KT //// // ////// 13/12 Q1014 ///
2:20 am
L
57 °F 0 mi - 230° 230° 8 kt METAR ETWM 260020Z AUTO 23008KT //// // ////// 14/11 Q1014 ///
1:20 am
L
57 °F 0 mi - 230° 230° 8 - 18 kt METAR ETWM 252320Z AUTO 23008G18KT //// // ////// 14/10 Q1014 ///
12:20 am
L
57 °F 0 mi - 220° 220° 9 kt METAR ETWM 252220Z AUTO 22009KT //// // ////// 14/10 Q1014 ///

25 maggio 2022

Tempo Codice Tempo metereologico Temp. Vista Base nuvolosa Vento METAR/SPECI
11:20 pm
L
55 °F 0 mi - 230° 230° 8 kt METAR ETWM 252120Z AUTO 23008KT //// // ////// 13/10 Q1014 ///
10:20 pm
L
57 °F 0 mi - 230° 230° 6 kt METAR ETWM 252020Z AUTO 23006KT //// // ////// 14/09 Q1014 ///
9:20 pm
L
57 °F 0 mi - 260° 260° 11 - 24 kt METAR ETWM 251920Z AUTO 26011G24KT //// // ////// 14/10 Q1014 ///
8:20 pm
L
61 °F 0 mi - 250° 250° 10 - 25 kt METAR ETWM 251820Z AUTO 25010G25KT //// // ////// 16/07 Q1013 ///
7:20 pm
L
63 °F 0 mi - 230° 230° 8 - 21 kt METAR ETWM 251720Z AUTO 23008G21KT //// // ////// 17/07 Q1013 ///
6:20 pm
L
63 °F 0 mi - 240° 240° 9 kt METAR ETWM 251620Z AUTO 24009KT //// // ////// 17/07 Q1013 ///
5:20 pm
L
63 °F 0 mi - 220° 220° 9 kt METAR ETWM 251520Z AUTO 22009KT //// // ////// 17/08 Q1013 ///
4:20 pm
V
63 °F 6¼ mi+ 12.000 ft 240° 240° 8 kt METAR ETWM 251420Z 24008KT 9999 -SHRA SCT045 SCT072 BKN120 17/07 Q1013 BLU
3:20 pm
V
64 °F 6¼ mi+ 15.000 ft 230° 230° 9 kt METAR ETWM 251320Z 23009KT 9999 FEW045 BKN150 18/07 Q1013 BLU
2:20 pm
V
64 °F 6¼ mi+ - 210° 210° 11 kt METAR ETWM 251220Z 21011KT 9999 FEW038 SCT140 18/07 Q1013 BLU+
Dati più vecchi

Scarica la nostra applicazione

Facile accesso a tutte le previsioni dell'aviazione sul tuo cellulare e tablet.
Con molte caratteristiche non disponibili sul sito web, come il supporto offline e una lista personale di aeroporti.

Noi e le terze parti seguiamo il tuo comportamento in internet sul nostro sito web con i cookie. Se continui, riteniamo che tu sia d'accordo con la nostra politica sui cookie. Per saperne di più